Fry, Arizona
Current Conditions -  °F | °C
As of 9:55 PM on Friday 24 Oct 2014 (Local Time) from KFHU Reporting Station
Clear Clear  
Wind Chill: 20°   Ceiling: Unl
Heat Index: 20°   Visibility: 10mi
Dew Point:   Wind: 10mph
Humidity: 43%   Direction: 230°SW
Pressure: 30.24"   Gusts: NA
Location:  31.5289°N, 110.258°W
Report Text: KFHU 250455Z 23009KT 10SM CLR 20/07 A3024 RMK SLP184
Loading
Personal Weather Stations






























Interactive Weather Map
Tropical Storm Tracking
New forecast layout! Learn more

10-Day Weather Forecast

Advertisements
Track Severe Weather on mobile